createdAt,value
2023-05-04T00:01:04.177Z,3.15
2023-05-04T00:03:32.107Z,3.15
2023-05-04T00:05:59.848Z,3.38
2023-05-04T00:08:28.912Z,2.92
2023-05-04T00:10:57.461Z,2.85
2023-05-04T00:13:25.384Z,2.97
2023-05-04T00:15:53.099Z,2.97
2023-05-04T00:18:20.824Z,2.45
2023-05-04T00:20:48.558Z,2.30
2023-05-04T00:23:16.258Z,2.83
2023-05-04T00:25:45.298Z,2.75
2023-05-04T00:28:13.335Z,3.22
2023-05-04T00:30:41.036Z,2.92
2023-05-04T00:33:08.793Z,3.03
2023-05-04T00:35:36.811Z,2.53
2023-05-04T00:38:04.970Z,2.60
2023-05-04T00:40:33.263Z,2.13
2023-05-04T00:43:02.404Z,3.13
2023-05-04T00:45:30.377Z,2.72
2023-05-04T00:47:58.148Z,3.25
2023-05-04T00:50:26.375Z,2.38
2023-05-04T00:52:56.343Z,3.15
2023-05-04T00:55:24.252Z,2.90
2023-05-04T00:57:52.634Z,2.60
2023-05-04T01:00:22.427Z,2.50
2023-05-04T01:02:50.715Z,2.60
2023-05-04T01:05:18.832Z,3.63
2023-05-04T01:07:58.061Z,2.35
2023-05-04T01:10:31.239Z,3.13
2023-05-04T01:13:03.818Z,2.75
2023-05-04T01:15:33.492Z,2.42
2023-05-04T01:18:01.413Z,2.40
2023-05-04T01:20:29.521Z,2.50
2023-05-04T01:22:59.000Z,2.47
2023-05-04T01:25:32.102Z,2.90
2023-05-04T01:28:07.591Z,2.47
2023-05-04T01:30:40.381Z,2.90
2023-05-04T01:33:08.911Z,2.83
2023-05-04T01:35:37.012Z,2.53
2023-05-04T01:38:06.352Z,2.17
2023-05-04T01:40:34.049Z,2.72
2023-05-04T01:43:01.763Z,2.53
2023-05-04T01:45:29.557Z,3.03
2023-05-04T01:47:57.291Z,2.53
2023-05-04T01:50:25.033Z,2.00
2023-05-04T01:52:52.734Z,2.60
2023-05-04T01:55:21.808Z,2.20
2023-05-04T01:57:49.503Z,2.60
2023-05-04T02:00:17.389Z,2.22
2023-05-04T02:02:45.202Z,2.72
2023-05-04T02:05:12.959Z,2.50
2023-05-04T02:07:40.753Z,2.92
2023-05-04T02:10:10.001Z,3.00
2023-05-04T02:12:39.135Z,2.53
2023-05-04T02:15:08.058Z,2.60
2023-05-04T02:17:35.829Z,2.30
2023-05-04T02:20:04.700Z,2.50
2023-05-04T02:22:32.851Z,2.70
2023-05-04T02:25:00.800Z,2.35
2023-05-04T02:27:28.514Z,2.38
2023-05-04T02:29:58.398Z,2.47
2023-05-04T02:32:26.342Z,3.00
2023-05-04T02:34:54.396Z,2.67
2023-05-04T02:37:22.369Z,2.88
2023-05-04T02:39:50.164Z,2.65
2023-05-04T02:42:17.907Z,3.00
2023-05-04T02:44:45.644Z,2.63
2023-05-04T02:47:14.877Z,3.13
2023-05-04T02:49:42.566Z,2.65
2023-05-04T02:52:10.323Z,2.95
2023-05-04T02:54:39.022Z,2.42
2023-05-04T02:57:07.279Z,2.60
2023-05-04T02:59:34.965Z,2.30
2023-05-04T03:02:02.622Z,2.63
2023-05-04T03:04:31.703Z,2.97
2023-05-04T03:06:59.447Z,2.38
2023-05-04T03:09:27.195Z,3.15
2023-05-04T03:11:54.871Z,3.15
2023-05-04T03:14:22.629Z,2.65
2023-05-04T03:16:50.447Z,2.72
2023-05-04T03:19:19.047Z,2.78
2023-05-04T03:21:48.115Z,2.92
2023-05-04T03:24:18.018Z,2.60
2023-05-04T03:26:47.168Z,2.58
2023-05-04T03:29:14.913Z,3.45
2023-05-04T03:31:42.719Z,2.97
2023-05-04T03:34:12.756Z,2.33
2023-05-04T03:36:40.466Z,2.97
2023-05-04T03:39:09.849Z,3.08
2023-05-04T03:41:37.576Z,3.22
2023-05-04T03:44:05.316Z,2.53
2023-05-04T03:46:33.064Z,2.63
2023-05-04T03:49:00.823Z,2.95
2023-05-04T03:51:28.643Z,2.45
2023-05-04T03:53:56.328Z,2.75
2023-05-04T03:56:25.764Z,3.53
2023-05-04T03:58:53.443Z,3.00
2023-05-04T04:01:21.182Z,2.55
2023-05-04T04:03:49.130Z,3.05
2023-05-04T04:06:17.015Z,3.20
2023-05-04T04:08:44.711Z,2.97
2023-05-04T04:11:12.407Z,2.50
2023-05-04T04:13:41.620Z,2.83
2023-05-04T04:16:09.394Z,2.88
2023-05-04T04:18:37.140Z,2.83
2023-05-04T04:21:05.086Z,2.63
2023-05-04T04:23:32.802Z,2.92
2023-05-04T04:26:01.484Z,3.00
2023-05-04T04:28:29.577Z,3.03
2023-05-04T04:30:59.542Z,2.83
2023-05-04T04:33:27.697Z,3.58
2023-05-04T04:35:55.442Z,2.83
2023-05-04T04:38:23.214Z,3.25
2023-05-04T04:40:50.969Z,3.03
2023-05-04T04:43:18.624Z,3.47
2023-05-04T04:45:46.912Z,3.25
2023-05-04T04:48:16.840Z,3.30
2023-05-04T04:50:44.555Z,2.65
2023-05-04T04:53:12.237Z,3.78
2023-05-04T04:55:39.921Z,3.05
2023-05-04T04:58:08.824Z,3.15
2023-05-04T05:00:36.638Z,3.17
2023-05-04T05:03:04.989Z,3.33
2023-05-04T05:05:34.116Z,3.17
2023-05-04T05:08:02.402Z,3.20
2023-05-04T05:10:30.785Z,3.47
2023-05-04T05:12:58.524Z,3.05
2023-05-04T05:15:26.226Z,4.60
2023-05-04T05:17:54.129Z,3.28
2023-05-04T05:20:22.121Z,3.28
2023-05-04T05:22:51.625Z,3.83
2023-05-04T05:25:19.736Z,3.30
2023-05-04T05:27:47.519Z,3.20
2023-05-04T05:30:15.619Z,2.95
2023-05-04T05:32:43.363Z,2.78
2023-05-04T05:35:12.427Z,3.33
2023-05-04T05:37:40.222Z,3.38
2023-05-04T05:40:11.169Z,3.47
2023-05-04T05:42:38.909Z,3.50
2023-05-04T05:45:08.022Z,3.38
2023-05-04T05:47:36.799Z,3.67
2023-05-04T05:50:04.978Z,2.63
2023-05-04T05:52:32.833Z,2.80
2023-05-04T05:55:02.689Z,2.85
2023-05-04T05:57:32.332Z,3.55
2023-05-04T06:00:00.183Z,3.30
2023-05-04T06:02:27.989Z,2.80
2023-05-04T06:04:55.872Z,2.65
2023-05-04T06:07:23.787Z,3.10
2023-05-04T06:09:51.626Z,3.75
2023-05-04T06:12:19.321Z,3.15
2023-05-04T06:14:48.446Z,3.78
2023-05-04T06:17:17.451Z,3.05
2023-05-04T06:19:45.942Z,3.08
2023-05-04T06:22:14.432Z,3.17
2023-05-04T06:24:42.103Z,3.45
2023-05-04T06:27:09.908Z,2.92
2023-05-04T06:29:38.248Z,3.00
2023-05-04T06:32:07.717Z,2.85
2023-05-04T06:34:35.499Z,2.53
2023-05-04T06:37:03.401Z,3.30
2023-05-04T06:39:31.169Z,3.22
2023-05-04T06:41:59.604Z,3.10
2023-05-04T06:44:27.300Z,3.10
2023-05-04T06:46:55.073Z,3.35
2023-05-04T06:49:24.131Z,3.60
2023-05-04T06:51:51.804Z,2.80
2023-05-04T06:54:19.527Z,2.97
2023-05-04T06:56:47.707Z,2.80
2023-05-04T06:59:16.879Z,2.83
2023-05-04T07:01:45.463Z,2.33
2023-05-04T07:04:13.216Z,2.88
2023-05-04T07:06:43.548Z,2.55
2023-05-04T07:09:11.346Z,2.53
2023-05-04T07:11:39.209Z,2.08
2023-05-04T07:14:09.791Z,2.67
2023-05-04T07:16:38.504Z,2.45
2023-05-04T07:19:06.317Z,2.15
2023-05-04T07:21:34.338Z,2.92
2023-05-04T07:24:04.413Z,2.42
2023-05-04T07:26:32.131Z,2.20
2023-05-04T07:28:59.849Z,2.67
2023-05-04T07:31:29.497Z,2.75
2023-05-04T07:33:58.233Z,2.30
2023-05-04T07:36:27.754Z,2.20
2023-05-04T07:38:55.568Z,2.67
2023-05-04T07:41:24.644Z,2.45
2023-05-04T07:43:52.380Z,2.63
2023-05-04T07:46:20.307Z,2.50
2023-05-04T07:48:49.271Z,2.70
2023-05-04T07:51:17.306Z,2.28
2023-05-04T07:53:45.006Z,2.58
2023-05-04T07:56:14.092Z,2.60
2023-05-04T07:58:43.199Z,2.50
2023-05-04T08:01:10.961Z,2.70
2023-05-04T08:03:39.405Z,2.13
2023-05-04T08:06:09.401Z,2.25
2023-05-04T08:08:37.117Z,2.30
2023-05-04T08:11:18.615Z,2.55
2023-05-04T08:13:50.661Z,2.25
2023-05-04T08:16:18.492Z,2.90
2023-05-04T08:18:46.377Z,2.33
2023-05-04T08:21:14.643Z,2.20
2023-05-04T08:23:42.378Z,3.20
2023-05-04T08:26:10.676Z,2.72
2023-05-04T08:28:41.637Z,2.50
2023-05-04T08:31:10.948Z,2.20
2023-05-04T08:33:38.834Z,2.13
2023-05-04T08:36:08.802Z,2.20
2023-05-04T08:38:37.050Z,2.22
2023-05-04T08:41:04.902Z,2.35
2023-05-04T08:43:35.062Z,2.28
2023-05-04T08:46:03.243Z,2.05
2023-05-04T08:48:33.655Z,2.25
2023-05-04T08:51:04.219Z,1.92
2023-05-04T08:53:32.778Z,2.13
2023-05-04T08:56:04.464Z,1.92
2023-05-04T08:58:37.913Z,2.03
2023-05-04T09:01:08.521Z,2.13
2023-05-04T09:03:38.729Z,1.95
2023-05-04T09:06:08.426Z,2.13
2023-05-04T09:08:36.347Z,2.10
2023-05-04T09:11:04.526Z,2.10
2023-05-04T09:13:32.505Z,2.10
2023-05-04T09:16:00.326Z,2.45
2023-05-04T09:18:38.944Z,2.25
2023-05-04T09:21:07.267Z,2.05
2023-05-04T09:23:35.230Z,2.45
2023-05-04T09:26:02.995Z,1.83
2023-05-04T09:28:39.219Z,1.70
2023-05-04T09:31:07.899Z,2.03
2023-05-04T09:33:35.869Z,2.10
2023-05-04T09:36:15.621Z,2.20
2023-05-04T09:38:43.470Z,1.80
2023-05-04T09:41:11.763Z,1.90
2023-05-04T09:43:41.080Z,1.80
2023-05-04T09:46:16.396Z,1.67
2023-05-04T09:48:52.316Z,1.90
2023-05-04T09:51:23.277Z,2.10
2023-05-04T09:53:52.488Z,1.88
2023-05-04T09:56:33.819Z,1.85
2023-05-04T09:59:01.558Z,2.03
2023-05-04T10:01:30.434Z,1.60
2023-05-04T10:03:58.272Z,2.20
2023-05-04T10:06:29.857Z,1.77
2023-05-04T10:09:00.482Z,1.90
2023-05-04T10:11:29.702Z,2.00
2023-05-04T10:13:57.833Z,2.17
2023-05-04T10:16:34.514Z,2.67
2023-05-04T10:21:55.956Z,2.00
2023-05-04T10:24:45.840Z,2.00
2023-05-04T10:27:15.960Z,2.53
2023-05-04T10:29:49.050Z,2.28
2023-05-04T10:32:21.585Z,2.25
2023-05-04T10:34:50.033Z,2.25
2023-05-04T10:37:20.376Z,2.20
2023-05-04T10:39:55.035Z,2.10
2023-05-04T10:42:23.221Z,2.17
2023-05-04T10:44:53.255Z,2.22
2023-05-04T10:47:29.283Z,2.42
2023-05-04T10:50:04.642Z,1.85
2023-05-04T10:52:34.374Z,2.28
2023-05-04T10:55:04.126Z,2.40
2023-05-04T10:57:31.977Z,2.03
2023-05-04T11:00:00.199Z,1.75
2023-05-04T11:02:30.989Z,2.10
2023-05-04T11:05:04.275Z,2.75
2023-05-04T11:07:38.635Z,2.13
2023-05-04T11:10:08.301Z,1.80
2023-05-04T11:12:38.578Z,2.30
2023-05-04T11:15:08.577Z,2.38
2023-05-04T11:17:45.583Z,2.00
2023-05-04T11:20:21.063Z,1.98
2023-05-04T11:22:50.896Z,2.00
2023-05-04T11:25:27.130Z,2.88
2023-05-04T11:27:54.903Z,1.85
2023-05-04T11:30:23.108Z,2.25
2023-05-04T11:32:50.860Z,1.85
2023-05-04T11:35:22.754Z,1.95
2023-05-04T11:37:51.851Z,2.60
2023-05-04T11:40:27.327Z,2.28
2023-05-04T11:42:57.341Z,3.03
2023-05-04T11:45:29.224Z,2.38
2023-05-04T11:47:57.544Z,1.90
2023-05-04T11:50:27.637Z,1.88
2023-05-04T11:53:06.494Z,1.90
2023-05-04T11:55:34.866Z,2.00
2023-05-04T11:58:04.535Z,2.22
2023-05-04T12:00:37.291Z,2.50
2023-05-04T12:03:05.981Z,2.00
2023-05-04T12:05:34.436Z,1.95
2023-05-04T12:08:03.406Z,2.00
2023-05-04T12:10:34.864Z,2.90
2023-05-04T12:13:03.011Z,2.97
2023-05-04T12:15:33.045Z,2.80
2023-05-04T12:18:02.427Z,2.42
2023-05-04T12:20:31.660Z,3.13
2023-05-04T12:22:59.753Z,2.88
2023-05-04T12:25:27.577Z,2.53
2023-05-04T12:27:56.664Z,2.60
2023-05-04T12:30:24.426Z,2.53
2023-05-04T12:32:52.233Z,2.45
2023-05-04T12:35:19.929Z,2.10
2023-05-04T12:37:48.151Z,1.90
2023-05-04T12:40:27.794Z,2.17
2023-05-04T12:42:58.560Z,2.03
2023-05-04T12:45:26.224Z,2.58
2023-05-04T12:47:53.982Z,2.85
2023-05-04T12:50:21.798Z,2.78
2023-05-04T12:52:49.594Z,2.22
2023-05-04T12:55:17.513Z,2.42
2023-05-04T12:57:45.728Z,2.90
2023-05-04T13:00:16.010Z,2.88
2023-05-04T13:02:44.351Z,2.47
2023-05-04T13:05:13.028Z,2.30
2023-05-04T13:07:40.802Z,2.53
2023-05-04T13:10:09.242Z,2.50
2023-05-04T13:12:38.563Z,2.28
2023-05-04T13:15:07.504Z,2.00
2023-05-04T13:17:37.852Z,2.15
2023-05-04T13:20:07.103Z,2.10
2023-05-04T13:22:35.301Z,2.28
2023-05-04T13:25:03.070Z,2.33
2023-05-04T13:27:30.992Z,2.53
2023-05-04T13:30:01.256Z,2.30
2023-05-04T13:32:29.208Z,2.85
2023-05-04T13:34:58.429Z,2.60
2023-05-04T13:37:26.127Z,2.20
2023-05-04T13:39:53.959Z,2.17
2023-05-04T13:42:21.715Z,2.03
2023-05-04T13:44:49.414Z,2.05
2023-05-04T13:47:17.635Z,1.98
2023-05-04T13:49:45.735Z,2.10
2023-05-04T13:52:14.806Z,2.25
2023-05-04T13:54:42.491Z,2.67
2023-05-04T13:57:10.198Z,3.95
2023-05-04T13:59:37.915Z,3.28
2023-05-04T14:02:05.710Z,2.47
2023-05-04T14:04:33.476Z,3.00
2023-05-04T14:07:01.259Z,2.50
2023-05-04T14:09:30.432Z,1.67
2023-05-04T14:11:58.732Z,2.45
2023-05-04T14:14:26.678Z,2.63
2023-05-04T14:16:54.412Z,2.30
2023-05-04T14:19:22.229Z,2.03
2023-05-04T14:21:49.911Z,2.38
2023-05-04T14:24:17.652Z,2.40
2023-05-04T14:26:46.919Z,2.15
2023-05-04T14:29:14.648Z,2.60
2023-05-04T14:31:42.526Z,1.98
2023-05-04T14:34:11.066Z,2.00
2023-05-04T14:36:38.875Z,2.00
2023-05-04T14:39:06.607Z,2.05
2023-05-04T14:41:37.119Z,1.83
2023-05-04T14:44:06.708Z,2.05
2023-05-04T14:46:34.513Z,2.10
2023-05-04T14:49:02.339Z,2.17
2023-05-04T14:51:33.632Z,1.98
2023-05-04T14:54:02.038Z,2.53
2023-05-04T14:56:29.764Z,2.60
2023-05-04T14:58:57.768Z,2.28
2023-05-04T15:01:26.911Z,2.08
2023-05-04T15:03:56.425Z,1.90
2023-05-04T15:06:24.400Z,1.65
2023-05-04T15:08:52.175Z,1.90
2023-05-04T15:11:20.170Z,2.17
2023-05-04T15:13:47.926Z,2.30
2023-05-04T15:16:18.730Z,2.58
2023-05-04T15:18:47.842Z,1.98
2023-05-04T15:21:15.841Z,2.67
2023-05-04T15:23:43.539Z,2.78
2023-05-04T15:26:11.260Z,2.75
2023-05-04T15:28:38.964Z,2.92
2023-05-04T15:31:07.406Z,3.42
2023-05-04T15:33:35.122Z,3.35
2023-05-04T15:36:07.985Z,2.67
2023-05-04T15:38:36.174Z,3.28
2023-05-04T15:41:05.520Z,2.67
2023-05-04T15:43:33.348Z,5.25
2023-05-04T15:46:01.348Z,8.63
2023-05-04T15:48:29.117Z,6.90
2023-05-04T15:50:56.940Z,6.75
2023-05-04T15:53:26.043Z,5.00
2023-05-04T15:55:53.961Z,5.68
2023-05-04T15:58:21.654Z,4.53
2023-05-04T16:00:49.793Z,4.38
2023-05-04T16:03:17.751Z,4.50
2023-05-04T16:05:45.983Z,4.13
2023-05-04T16:08:13.735Z,3.53
2023-05-04T16:10:42.777Z,3.92
2023-05-04T16:13:12.268Z,3.67
2023-05-04T16:15:40.092Z,4.28
2023-05-04T16:18:08.002Z,3.63
2023-05-04T16:20:35.847Z,2.53
2023-05-04T16:23:03.607Z,3.38
2023-05-04T16:25:31.411Z,2.80
2023-05-04T16:28:00.642Z,2.70
2023-05-04T16:30:32.655Z,2.72
2023-05-04T16:33:00.481Z,2.90
2023-05-04T16:35:28.870Z,3.00
2023-05-04T16:37:56.681Z,2.70
2023-05-04T16:40:24.572Z,2.45
2023-05-04T16:42:52.249Z,2.53
2023-05-04T16:45:21.652Z,2.55
2023-05-04T16:47:49.435Z,2.65
2023-05-04T16:50:17.133Z,2.90
2023-05-04T16:52:45.263Z,3.35
2023-05-04T16:55:12.991Z,3.78
2023-05-04T16:57:40.823Z,3.38
2023-05-04T17:00:10.516Z,3.20
2023-05-04T17:02:39.887Z,2.70
2023-05-04T17:05:10.324Z,2.53
2023-05-04T17:07:39.597Z,2.40
2023-05-04T17:10:09.095Z,2.20
2023-05-04T17:12:37.342Z,2.67
2023-05-04T17:15:05.949Z,3.33
2023-05-04T17:17:33.723Z,3.08
2023-05-04T17:20:03.792Z,5.53
2023-05-04T17:22:31.713Z,6.43
2023-05-04T17:24:59.467Z,5.05
2023-05-04T17:27:27.274Z,3.22
2023-05-04T17:29:54.974Z,3.17
2023-05-04T17:32:22.716Z,2.40
2023-05-04T17:34:50.426Z,2.60
2023-05-04T17:37:19.764Z,2.53
2023-05-04T17:39:47.835Z,2.53
2023-05-04T17:42:16.436Z,2.22
2023-05-04T17:44:44.211Z,2.25
2023-05-04T17:47:12.074Z,2.00
2023-05-04T17:49:39.827Z,2.33
2023-05-04T17:52:07.626Z,2.67
2023-05-04T17:54:36.997Z,2.58
2023-05-04T17:57:04.737Z,2.13
2023-05-04T17:59:32.559Z,2.33
2023-05-04T18:02:00.394Z,2.60
2023-05-04T18:04:31.252Z,2.20
2023-05-04T18:06:59.143Z,2.17
2023-05-04T18:09:27.073Z,2.47
2023-05-04T18:11:57.024Z,2.67
2023-05-04T18:14:24.811Z,2.78
2023-05-04T18:16:52.630Z,2.40
2023-05-04T18:19:24.612Z,2.60
2023-05-04T18:21:52.588Z,2.58
2023-05-04T18:24:20.731Z,2.53
2023-05-04T18:26:48.868Z,2.88
2023-05-04T18:29:19.287Z,2.78
2023-05-04T18:31:47.547Z,2.40
2023-05-04T18:34:15.355Z,2.63
2023-05-04T18:36:43.119Z,2.33
2023-05-04T18:39:10.989Z,2.35
2023-05-04T18:41:38.988Z,2.42
2023-05-04T18:44:09.038Z,2.10
2023-05-04T18:46:38.155Z,2.33
2023-05-04T18:49:05.879Z,2.08
2023-05-04T18:51:33.613Z,2.08
2023-05-04T18:54:01.455Z,2.40
2023-05-04T18:56:29.153Z,1.83
2023-05-04T18:58:56.818Z,1.80
2023-05-04T19:01:24.587Z,2.30
2023-05-04T19:03:53.994Z,1.90
2023-05-04T19:06:21.735Z,2.65
2023-05-04T19:08:49.485Z,1.80
2023-05-04T19:11:17.321Z,2.28
2023-05-04T19:13:45.032Z,2.03
2023-05-04T19:16:13.097Z,2.35
2023-05-04T19:18:40.898Z,1.75
2023-05-04T19:21:09.939Z,2.10
2023-05-04T19:23:37.601Z,2.13
2023-05-04T19:26:05.938Z,1.95
2023-05-04T19:28:33.743Z,2.15
2023-05-04T19:31:01.535Z,1.90
2023-05-04T19:33:40.397Z,1.95
2023-05-04T19:36:14.028Z,1.95
2023-05-04T19:38:41.791Z,2.13
2023-05-04T19:41:09.570Z,1.85
2023-05-04T19:43:38.827Z,1.92
2023-05-04T19:46:06.744Z,2.30
2023-05-04T19:48:34.444Z,2.30
2023-05-04T19:51:02.245Z,1.60
2023-05-04T19:53:31.643Z,2.15
2023-05-04T19:55:59.500Z,1.90
2023-05-04T19:58:28.149Z,2.20
2023-05-04T20:00:56.104Z,2.50
2023-05-04T20:03:24.113Z,1.92
2023-05-04T20:05:52.052Z,2.00
2023-05-04T20:08:19.860Z,2.17
2023-05-04T20:10:49.061Z,1.83
2023-05-04T20:13:16.867Z,2.35
2023-05-04T20:15:44.997Z,2.10
2023-05-04T20:18:12.876Z,2.08
2023-05-04T20:20:40.890Z,2.28
2023-05-04T20:23:08.625Z,1.83
2023-05-04T20:25:36.561Z,1.85
2023-05-04T20:28:06.070Z,2.55
2023-05-04T20:30:33.800Z,2.15
2023-05-04T20:33:01.759Z,2.30
2023-05-04T20:35:29.549Z,2.13
2023-05-04T20:37:57.958Z,2.03
2023-05-04T20:40:25.831Z,2.53
2023-05-04T20:42:53.570Z,2.25
2023-05-04T20:45:22.760Z,2.10
2023-05-04T20:47:50.539Z,2.30
2023-05-04T20:50:18.891Z,1.85
2023-05-04T20:52:46.595Z,2.00
2023-05-04T20:55:14.389Z,2.17
2023-05-04T20:57:42.298Z,2.10
2023-05-04T21:00:11.259Z,1.90
2023-05-04T21:02:40.442Z,2.03
2023-05-04T21:05:08.926Z,2.30
2023-05-04T21:07:36.655Z,2.42
2023-05-04T21:10:04.821Z,2.20
2023-05-04T21:12:32.752Z,2.25
2023-05-04T21:15:00.470Z,2.38
2023-05-04T21:17:28.223Z,2.20
2023-05-04T21:19:57.458Z,2.90
2023-05-04T21:22:25.274Z,2.45
2023-05-04T21:24:52.995Z,2.25
2023-05-04T21:27:21.191Z,2.45
2023-05-04T21:29:48.941Z,2.10
2023-05-04T21:32:16.604Z,2.65
2023-05-04T21:34:44.307Z,2.08
2023-05-04T21:37:13.401Z,2.00
2023-05-04T21:39:41.288Z,2.20
2023-05-04T21:42:08.989Z,2.25
2023-05-04T21:44:36.717Z,2.00
2023-05-04T21:47:04.510Z,1.80
2023-05-04T21:49:32.291Z,2.33
2023-05-04T21:51:59.964Z,2.20
2023-05-04T21:54:29.044Z,2.25
2023-05-04T21:56:56.737Z,1.95
2023-05-04T21:59:24.470Z,2.53
2023-05-04T22:01:52.177Z,2.30
2023-05-04T22:04:20.024Z,2.40
2023-05-04T22:06:48.251Z,2.63
2023-05-04T22:09:16.551Z,2.17
2023-05-04T22:11:46.681Z,2.40
2023-05-04T22:14:14.395Z,2.58
2023-05-04T22:16:42.159Z,2.40
2023-05-04T22:19:09.944Z,2.63
2023-05-04T22:21:39.834Z,2.20
2023-05-04T22:24:07.983Z,2.00
2023-05-04T22:26:36.038Z,2.30
2023-05-04T22:29:05.094Z,2.28
2023-05-04T22:31:32.880Z,2.20
2023-05-04T22:34:00.803Z,2.28
2023-05-04T22:36:28.609Z,2.47
2023-05-04T22:38:56.307Z,2.83
2023-05-04T22:41:24.302Z,2.60
2023-05-04T22:43:51.996Z,2.85
2023-05-04T22:46:21.343Z,2.45
2023-05-04T22:48:49.258Z,2.60
2023-05-04T22:51:16.973Z,2.60
2023-05-04T22:53:44.992Z,2.40
2023-05-04T22:56:12.745Z,2.10
2023-05-04T22:58:40.778Z,2.30
2023-05-04T23:01:10.189Z,2.90
2023-05-04T23:03:39.501Z,2.83
2023-05-04T23:06:08.640Z,2.63
2023-05-04T23:08:36.453Z,2.47
2023-05-04T23:11:04.347Z,2.45
2023-05-04T23:13:32.110Z,3.00
2023-05-04T23:16:00.127Z,3.25
2023-05-04T23:18:27.817Z,3.00
2023-05-04T23:20:56.924Z,2.80
2023-05-04T23:23:24.627Z,2.50
2023-05-04T23:25:52.325Z,3.35
2023-05-04T23:28:19.973Z,2.53
2023-05-04T23:30:47.725Z,2.88
2023-05-04T23:33:15.457Z,3.33
2023-05-04T23:35:43.159Z,3.45
2023-05-04T23:38:12.190Z,3.22
2023-05-04T23:40:39.872Z,2.65
2023-05-04T23:43:07.777Z,2.90
2023-05-04T23:45:35.546Z,3.70
2023-05-04T23:48:03.334Z,3.35
2023-05-04T23:50:31.092Z,3.58
2023-05-04T23:52:58.821Z,3.15
2023-05-04T23:55:28.084Z,2.85
2023-05-04T23:57:55.758Z,3.20
